PBD731 URWW-UWKD
Flight info
| Callsign | PBD731 |
|---|---|
| Flight time | 1h 23m |
| Altitude | 35000 |
| Route | RODUN1E RODUN R807 UROBO P135 DAFOS T789 SONUM SONUM1T |
| Aircraft | B738/M-SDE2E3FGHIRWXY/LB1 |
Departure
| Time | 2026-05-07 16:35 |
|---|---|
| Airport | Volgograd International Airport (URWW) |
Arrival
| Time | 2026-05-07 17:59 |
|---|---|
| Airport | Kazan International Airport (UWKD) |
| Time | Latitude | Longitude | Altitude | Speed | Heading |
|---|---|---|---|---|---|
| 2026-05-07 16:09 | 48.79097 | 44.35625 | 473 ft | 0 kts | 339° |
| 2026-05-07 16:10 | 48.79097 | 44.35624 | 473 ft | 0 kts | 339° |
| 2026-05-07 16:17 | 48.79096 | 44.35624 | 472 ft | 0 kts | 340° |
| 2026-05-07 16:26 | 48.79094 | 44.35625 | 472 ft | 2 kts | 340° |
| 2026-05-07 16:26 | 48.79085 | 44.35630 | 472 ft | 2 kts | 336° |
| 2026-05-07 16:26 | 48.79073 | 44.35643 | 472 ft | 2 kts | 311° |
| 2026-05-07 16:26 | 48.79067 | 44.35655 | 473 ft | 2 kts | 299° |
| 2026-05-07 16:27 | 48.79061 | 44.35683 | 473 ft | 2 kts | 272° |
| 2026-05-07 16:27 | 48.79062 | 44.35705 | 473 ft | 1 kts | 253° |
| 2026-05-07 16:27 | 48.79065 | 44.35714 | 473 ft | 1 kts | 248° |
| 2026-05-07 16:27 | 48.79065 | 44.35716 | 473 ft | 0 kts | 249° |
| 2026-05-07 16:30 | 48.79065 | 44.35715 | 473 ft | 0 kts | 249° |
| 2026-05-07 16:30 | 48.79059 | 44.35688 | 473 ft | 6 kts | 250° |
| 2026-05-07 16:30 | 48.79031 | 44.35572 | 471 ft | 14 kts | 249° |
| 2026-05-07 16:30 | 48.78990 | 44.35409 | 470 ft | 19 kts | 249° |
| 2026-05-07 16:31 | 48.78939 | 44.35202 | 471 ft | 21 kts | 249° |
| 2026-05-07 16:31 | 48.78825 | 44.35142 | 468 ft | 22 kts | 161° |
| 2026-05-07 16:31 | 48.78690 | 44.35210 | 468 ft | 7 kts | 162° |
| 2026-05-07 16:31 | 48.78687 | 44.35212 | 468 ft | 0 kts | 162° |
| 2026-05-07 16:33 | 48.78677 | 44.35216 | 468 ft | 6 kts | 162° |
| 2026-05-07 16:34 | 48.78589 | 44.35249 | 467 ft | 15 kts | 191° |
| 2026-05-07 16:34 | 48.78539 | 44.35174 | 466 ft | 0 kts | 244° |
| 2026-05-07 16:34 | 48.78538 | 44.35172 | 466 ft | 0 kts | 244° |
| 2026-05-07 16:35 | 48.78472 | 44.34964 | 462 ft | 59 kts | 244° |
| 2026-05-07 16:35 | 48.78184 | 44.34055 | 447 ft | 130 kts | 244° |
| 2026-05-07 16:35 | 48.77715 | 44.32586 | 608 ft | 169 kts | 244° |
| 2026-05-07 16:35 | 48.77199 | 44.31011 | 1389 ft | 171 kts | 245° |
| 2026-05-07 16:36 | 48.76673 | 44.29371 | 2080 ft | 178 kts | 246° |
| 2026-05-07 16:36 | 48.76134 | 44.27680 | 2583 ft | 186 kts | 246° |
| 2026-05-07 16:36 | 48.75551 | 44.25845 | 2985 ft | 201 kts | 247° |
| 2026-05-07 16:36 | 48.74918 | 44.23858 | 3345 ft | 220 kts | 247° |
| 2026-05-07 16:37 | 48.74386 | 44.21640 | 3784 ft | 233 kts | 265° |
| 2026-05-07 16:37 | 48.74540 | 44.19156 | 4219 ft | 243 kts | 294° |
| 2026-05-07 16:37 | 48.75352 | 44.16887 | 4732 ft | 252 kts | 311° |
| 2026-05-07 16:37 | 48.76611 | 44.15038 | 5243 ft | 260 kts | 332° |
| 2026-05-07 16:38 | 48.78310 | 44.14194 | 5947 ft | 260 kts | 358° |
| 2026-05-07 16:38 | 48.80066 | 44.14513 | 6733 ft | 259 kts | 17° |
| 2026-05-07 16:38 | 48.81713 | 44.15668 | 7472 ft | 263 kts | 33° |
| 2026-05-07 16:38 | 48.83167 | 44.17288 | 8231 ft | 265 kts | 37° |
| 2026-05-07 16:39 | 48.84609 | 44.19017 | 8935 ft | 269 kts | 37° |
| 2026-05-07 16:39 | 48.86093 | 44.20762 | 9733 ft | 269 kts | 36° |
| 2026-05-07 16:39 | 48.87578 | 44.22465 | 10419 ft | 273 kts | 36° |
| 2026-05-07 16:39 | 48.89129 | 44.24223 | 10804 ft | 289 kts | 36° |
| 2026-05-07 16:40 | 48.90774 | 44.26079 | 11371 ft | 298 kts | 36° |
| 2026-05-07 16:40 | 48.92455 | 44.27976 | 12062 ft | 303 kts | 36° |
| 2026-05-07 16:40 | 48.94125 | 44.29858 | 12788 ft | 306 kts | 36° |
| 2026-05-07 16:40 | 48.95843 | 44.31796 | 13546 ft | 309 kts | 36° |
| 2026-05-07 16:41 | 48.97575 | 44.33749 | 14247 ft | 313 kts | 36° |
| 2026-05-07 16:41 | 48.99317 | 44.35719 | 14977 ft | 316 kts | 36° |
| 2026-05-07 16:41 | 49.01075 | 44.37711 | 15752 ft | 317 kts | 36° |
| 2026-05-07 16:41 | 49.02839 | 44.39713 | 16466 ft | 320 kts | 36° |
| 2026-05-07 16:42 | 49.04657 | 44.41772 | 16897 ft | 328 kts | 36° |
| 2026-05-07 16:42 | 49.06486 | 44.43841 | 16946 ft | 327 kts | 36° |
| 2026-05-07 16:42 | 49.08295 | 44.45893 | 16943 ft | 324 kts | 36° |
| 2026-05-07 16:42 | 49.10103 | 44.47946 | 16945 ft | 325 kts | 36° |
| 2026-05-07 16:43 | 49.11906 | 44.49996 | 16946 ft | 327 kts | 36° |
| 2026-05-07 16:43 | 49.13731 | 44.52076 | 16943 ft | 325 kts | 36° |
| 2026-05-07 16:43 | 49.15543 | 44.54143 | 17011 ft | 333 kts | 36° |
| 2026-05-07 16:43 | 49.17402 | 44.56268 | 17806 ft | 332 kts | 36° |
| 2026-05-07 16:44 | 49.19252 | 44.58385 | 18546 ft | 332 kts | 36° |
| 2026-05-07 16:44 | 49.21104 | 44.60507 | 19218 ft | 334 kts | 36° |
| 2026-05-07 16:44 | 49.22971 | 44.62645 | 19757 ft | 340 kts | 36° |
| 2026-05-07 16:44 | 49.24846 | 44.64797 | 20322 ft | 343 kts | 36° |
| 2026-05-07 16:45 | 49.26752 | 44.66981 | 21008 ft | 344 kts | 36° |
| 2026-05-07 16:45 | 49.28694 | 44.69214 | 21572 ft | 347 kts | 36° |
| 2026-05-07 16:45 | 49.30626 | 44.71440 | 22119 ft | 351 kts | 36° |
| 2026-05-07 16:45 | 49.32559 | 44.73666 | 22650 ft | 354 kts | 36° |
| 2026-05-07 16:46 | 49.34538 | 44.75948 | 23210 ft | 356 kts | 36° |
| 2026-05-07 16:46 | 49.36514 | 44.78227 | 23733 ft | 359 kts | 36° |
| 2026-05-07 16:46 | 49.38500 | 44.80518 | 24279 ft | 361 kts | 36° |
| 2026-05-07 16:46 | 49.40523 | 44.82855 | 24766 ft | 364 kts | 36° |
| 2026-05-07 16:47 | 49.42642 | 44.85006 | 25202 ft | 367 kts | 27° |
| 2026-05-07 16:47 | 49.44951 | 44.86529 | 25702 ft | 368 kts | 18° |
| 2026-05-07 16:47 | 49.47417 | 44.87655 | 26268 ft | 367 kts | 15° |
| 2026-05-07 16:47 | 49.49904 | 44.88663 | 26577 ft | 374 kts | 14° |
| 2026-05-07 16:48 | 49.52405 | 44.89706 | 27039 ft | 377 kts | 15° |
| 2026-05-07 16:48 | 49.54928 | 44.90829 | 27514 ft | 378 kts | 16° |
| 2026-05-07 16:48 | 49.57470 | 44.92023 | 27991 ft | 380 kts | 17° |
| 2026-05-07 16:48 | 49.60016 | 44.93267 | 28389 ft | 383 kts | 17° |
| 2026-05-07 16:49 | 49.62543 | 44.94534 | 28790 ft | 385 kts | 17° |
| 2026-05-07 16:49 | 49.65094 | 44.95831 | 29131 ft | 389 kts | 17° |
| 2026-05-07 16:49 | 49.67627 | 44.97129 | 29558 ft | 390 kts | 17° |
| 2026-05-07 16:49 | 49.70219 | 44.98464 | 29860 ft | 394 kts | 17° |
| 2026-05-07 16:50 | 49.72839 | 44.99818 | 30200 ft | 397 kts | 17° |
| 2026-05-07 16:50 | 49.75468 | 45.01179 | 30610 ft | 399 kts | 17° |
| 2026-05-07 16:50 | 49.78097 | 45.02541 | 30911 ft | 402 kts | 17° |
| 2026-05-07 16:51 | 49.83441 | 45.05309 | 30936 ft | 404 kts | 17° |
| 2026-05-07 16:51 | 49.88740 | 45.08055 | 30938 ft | 406 kts | 17° |
| 2026-05-07 16:52 | 49.94087 | 45.10833 | 30946 ft | 404 kts | 17° |
| 2026-05-07 16:52 | 49.96730 | 45.12206 | 31104 ft | 409 kts | 17° |
| 2026-05-07 16:52 | 49.99453 | 45.13623 | 31586 ft | 408 kts | 17° |
| 2026-05-07 16:52 | 50.02117 | 45.15013 | 31944 ft | 410 kts | 17° |
| 2026-05-07 16:53 | 50.04854 | 45.16443 | 32286 ft | 413 kts | 17° |
| 2026-05-07 16:53 | 50.07564 | 45.17860 | 32594 ft | 415 kts | 17° |
| 2026-05-07 16:53 | 50.10302 | 45.19296 | 32924 ft | 417 kts | 17° |
| 2026-05-07 16:53 | 50.13056 | 45.20741 | 33200 ft | 420 kts | 17° |
| 2026-05-07 16:54 | 50.15861 | 45.22216 | 33558 ft | 421 kts | 17° |
| 2026-05-07 16:54 | 50.18604 | 45.23660 | 33883 ft | 423 kts | 17° |
| 2026-05-07 16:54 | 50.21430 | 45.25148 | 34027 ft | 428 kts | 17° |
| 2026-05-07 16:54 | 50.24224 | 45.26620 | 34382 ft | 428 kts | 17° |
| 2026-05-07 16:55 | 50.27063 | 45.28118 | 34671 ft | 430 kts | 17° |
| 2026-05-07 16:55 | 50.29848 | 45.29589 | 34920 ft | 430 kts | 17° |
| 2026-05-07 16:55 | 50.32707 | 45.31101 | 34941 ft | 431 kts | 17° |
| 2026-05-07 16:56 | 50.38337 | 45.34084 | 34941 ft | 427 kts | 17° |
| 2026-05-07 16:56 | 50.46794 | 45.38577 | 34942 ft | 429 kts | 17° |
| 2026-05-07 16:57 | 50.52459 | 45.41599 | 34946 ft | 429 kts | 17° |
| 2026-05-07 16:57 | 50.58118 | 45.44622 | 34941 ft | 429 kts | 17° |
| 2026-05-07 16:58 | 50.63746 | 45.47638 | 34940 ft | 428 kts | 17° |
| 2026-05-07 16:58 | 50.69384 | 45.50665 | 34942 ft | 429 kts | 17° |
| 2026-05-07 16:59 | 50.74974 | 45.53675 | 34939 ft | 428 kts | 17° |
| 2026-05-07 16:59 | 50.80665 | 45.56497 | 34940 ft | 428 kts | 13° |
| 2026-05-07 17:00 | 50.86451 | 45.58653 | 34935 ft | 427 kts | 11° |
| 2026-05-07 17:00 | 50.92235 | 45.60634 | 34933 ft | 427 kts | 11° |
| 2026-05-07 17:01 | 50.98040 | 45.62648 | 34936 ft | 427 kts | 12° |
| 2026-05-07 17:01 | 51.03792 | 45.65084 | 34937 ft | 428 kts | 19° |
| 2026-05-07 17:02 | 51.09298 | 45.68743 | 34941 ft | 430 kts | 24° |
| 2026-05-07 17:02 | 51.14702 | 45.72848 | 34940 ft | 429 kts | 25° |
| 2026-05-07 17:03 | 51.20056 | 45.76975 | 34933 ft | 427 kts | 25° |
| 2026-05-07 17:03 | 51.25416 | 45.81076 | 34938 ft | 430 kts | 25° |
| 2026-05-07 17:04 | 51.30817 | 45.85187 | 34943 ft | 429 kts | 25° |
| 2026-05-07 17:04 | 51.36219 | 45.89291 | 34942 ft | 429 kts | 25° |
| 2026-05-07 17:05 | 51.41597 | 45.93380 | 34943 ft | 430 kts | 25° |
| 2026-05-07 17:05 | 51.46996 | 45.97490 | 34938 ft | 430 kts | 25° |
| 2026-05-07 17:06 | 51.52378 | 46.01594 | 34929 ft | 430 kts | 25° |
| 2026-05-07 17:06 | 51.57778 | 46.05740 | 34925 ft | 429 kts | 25° |
| 2026-05-07 17:07 | 51.63102 | 46.10064 | 34922 ft | 431 kts | 27° |
| 2026-05-07 17:07 | 51.68436 | 46.14509 | 34921 ft | 434 kts | 26° |
| 2026-05-07 17:08 | 51.73742 | 46.18936 | 34920 ft | 433 kts | 26° |
| 2026-05-07 17:08 | 51.79139 | 46.23428 | 34917 ft | 435 kts | 26° |
| 2026-05-07 17:09 | 51.84484 | 46.27877 | 34919 ft | 435 kts | 26° |
| 2026-05-07 17:09 | 51.89854 | 46.32352 | 34916 ft | 435 kts | 26° |
| 2026-05-07 17:10 | 51.95242 | 46.36850 | 34916 ft | 436 kts | 26° |
| 2026-05-07 17:10 | 52.00611 | 46.41341 | 34910 ft | 437 kts | 26° |
| 2026-05-07 17:11 | 52.05997 | 46.45860 | 34911 ft | 438 kts | 26° |
| 2026-05-07 17:11 | 52.11409 | 46.50413 | 34905 ft | 437 kts | 26° |
| 2026-05-07 17:12 | 52.16767 | 46.54933 | 34901 ft | 438 kts | 26° |
| 2026-05-07 17:12 | 52.22189 | 46.59524 | 34904 ft | 439 kts | 26° |
| 2026-05-07 17:13 | 52.27452 | 46.63996 | 34910 ft | 439 kts | 26° |
| 2026-05-07 17:13 | 52.32878 | 46.68622 | 34911 ft | 439 kts | 26° |
| 2026-05-07 17:14 | 52.38276 | 46.73234 | 34916 ft | 441 kts | 26° |
| 2026-05-07 17:14 | 52.43719 | 46.77895 | 34922 ft | 440 kts | 26° |
| 2026-05-07 17:15 | 52.49136 | 46.82547 | 34930 ft | 441 kts | 26° |
| 2026-05-07 17:15 | 52.54579 | 46.87233 | 34934 ft | 441 kts | 26° |
| 2026-05-07 17:16 | 52.60007 | 46.91919 | 34941 ft | 441 kts | 26° |
| 2026-05-07 17:16 | 52.65431 | 46.96613 | 34941 ft | 442 kts | 26° |
| 2026-05-07 17:17 | 52.70863 | 47.01329 | 34939 ft | 443 kts | 26° |
| 2026-05-07 17:17 | 52.76291 | 47.06054 | 34936 ft | 444 kts | 26° |
| 2026-05-07 17:18 | 52.81743 | 47.10813 | 34938 ft | 444 kts | 26° |
| 2026-05-07 17:18 | 52.87174 | 47.15570 | 34936 ft | 443 kts | 26° |
| 2026-05-07 17:19 | 52.92596 | 47.20334 | 34936 ft | 444 kts | 26° |
| 2026-05-07 17:19 | 52.98055 | 47.25145 | 34935 ft | 444 kts | 26° |
| 2026-05-07 17:20 | 53.03468 | 47.29927 | 34933 ft | 445 kts | 26° |
| 2026-05-07 17:20 | 53.08902 | 47.34743 | 34935 ft | 445 kts | 26° |
| 2026-05-07 17:21 | 53.14380 | 47.39610 | 34935 ft | 445 kts | 26° |
| 2026-05-07 17:21 | 53.19861 | 47.44495 | 34932 ft | 445 kts | 26° |
| 2026-05-07 17:22 | 53.25335 | 47.49388 | 34932 ft | 445 kts | 27° |
| 2026-05-07 17:22 | 53.30776 | 47.54264 | 34929 ft | 445 kts | 26° |
| 2026-05-07 17:23 | 53.36220 | 47.59158 | 34928 ft | 445 kts | 27° |
| 2026-05-07 17:23 | 53.41658 | 47.64060 | 34927 ft | 445 kts | 27° |
| 2026-05-07 17:24 | 53.47103 | 47.68961 | 34928 ft | 445 kts | 26° |
| 2026-05-07 17:24 | 53.52743 | 47.73206 | 34930 ft | 444 kts | 21° |
| 2026-05-07 17:25 | 53.58472 | 47.76937 | 34927 ft | 444 kts | 20° |
| 2026-05-07 17:25 | 53.64213 | 47.80617 | 34929 ft | 443 kts | 20° |
| 2026-05-07 17:26 | 53.69963 | 47.84278 | 34925 ft | 443 kts | 17° |
| 2026-05-07 17:26 | 53.75879 | 47.87078 | 34935 ft | 443 kts | 13° |
| 2026-05-07 17:27 | 53.81840 | 47.89465 | 34942 ft | 443 kts | 15° |
| 2026-05-07 17:27 | 53.87622 | 47.92975 | 34949 ft | 441 kts | 22° |
| 2026-05-07 17:28 | 53.90401 | 47.95004 | 34946 ft | 429 kts | 23° |
| 2026-05-07 17:28 | 53.93074 | 47.97042 | 34949 ft | 420 kts | 24° |
| 2026-05-07 17:28 | 53.98385 | 48.01156 | 34954 ft | 425 kts | 24° |
| 2026-05-07 17:29 | 54.03747 | 48.05289 | 34949 ft | 424 kts | 23° |
| 2026-05-07 17:29 | 54.09137 | 48.09417 | 34950 ft | 425 kts | 23° |
| 2026-05-07 17:30 | 54.14575 | 48.13569 | 34944 ft | 426 kts | 23° |
| 2026-05-07 17:30 | 54.19980 | 48.17698 | 34943 ft | 425 kts | 23° |
| 2026-05-07 17:31 | 54.25350 | 48.21808 | 34657 ft | 426 kts | 23° |
| 2026-05-07 17:31 | 54.28027 | 48.24007 | 34395 ft | 424 kts | 26° |
| 2026-05-07 17:31 | 54.30613 | 48.26363 | 34139 ft | 423 kts | 27° |
| 2026-05-07 17:32 | 54.33160 | 48.28809 | 33880 ft | 424 kts | 28° |
| 2026-05-07 17:32 | 54.35712 | 48.31310 | 33623 ft | 426 kts | 28° |
| 2026-05-07 17:32 | 54.38302 | 48.33859 | 33356 ft | 428 kts | 28° |
| 2026-05-07 17:32 | 54.40011 | 48.35538 | 33182 ft | 429 kts | 28° |
| 2026-05-07 17:33 | 54.43438 | 48.38894 | 32743 ft | 432 kts | 28° |
| 2026-05-07 17:33 | 54.46082 | 48.41473 | 32050 ft | 436 kts | 28° |
| 2026-05-07 17:33 | 54.48689 | 48.44009 | 31522 ft | 432 kts | 28° |
| 2026-05-07 17:33 | 54.51292 | 48.46539 | 30965 ft | 432 kts | 28° |
| 2026-05-07 17:34 | 54.53902 | 48.49076 | 30379 ft | 435 kts | 28° |
| 2026-05-07 17:34 | 54.56551 | 48.51651 | 29764 ft | 437 kts | 28° |
| 2026-05-07 17:34 | 54.59187 | 48.54214 | 29158 ft | 437 kts | 28° |
| 2026-05-07 17:34 | 54.61803 | 48.56761 | 28931 ft | 432 kts | 28° |
| 2026-05-07 17:35 | 54.67063 | 48.61892 | 28920 ft | 432 kts | 28° |
| 2026-05-07 17:35 | 54.69596 | 48.64369 | 28920 ft | 415 kts | 28° |
| 2026-05-07 17:35 | 54.72091 | 48.66814 | 28779 ft | 402 kts | 29° |
| 2026-05-07 17:36 | 54.74481 | 48.69158 | 28391 ft | 389 kts | 29° |
| 2026-05-07 17:36 | 54.76810 | 48.71446 | 27910 ft | 380 kts | 30° |
| 2026-05-07 17:36 | 54.79076 | 48.73674 | 27278 ft | 375 kts | 29° |
| 2026-05-07 17:36 | 54.81329 | 48.75892 | 26589 ft | 372 kts | 29° |
| 2026-05-07 17:37 | 54.83563 | 48.78094 | 25923 ft | 368 kts | 29° |
| 2026-05-07 17:37 | 54.85774 | 48.80279 | 25261 ft | 364 kts | 29° |
| 2026-05-07 17:37 | 54.87932 | 48.82415 | 24619 ft | 360 kts | 29° |
| 2026-05-07 17:37 | 54.90102 | 48.84566 | 24027 ft | 356 kts | 29° |
| 2026-05-07 17:38 | 54.92217 | 48.86665 | 23540 ft | 354 kts | 29° |
| 2026-05-07 17:38 | 54.94339 | 48.88776 | 23125 ft | 349 kts | 29° |
| 2026-05-07 17:38 | 54.96418 | 48.90846 | 22807 ft | 338 kts | 29° |
| 2026-05-07 17:38 | 54.98406 | 48.92828 | 22557 ft | 324 kts | 29° |
| 2026-05-07 17:39 | 55.00302 | 48.94720 | 22312 ft | 311 kts | 29° |
| 2026-05-07 17:39 | 55.02152 | 48.96569 | 21911 ft | 305 kts | 29° |
| 2026-05-07 17:39 | 55.03988 | 48.98404 | 21394 ft | 302 kts | 29° |
| 2026-05-07 17:39 | 55.05787 | 49.00203 | 20913 ft | 300 kts | 29° |
| 2026-05-07 17:40 | 55.07589 | 49.02008 | 20589 ft | 296 kts | 29° |
| 2026-05-07 17:40 | 55.09347 | 49.03771 | 20197 ft | 295 kts | 29° |
| 2026-05-07 17:40 | 55.11137 | 49.05568 | 19818 ft | 293 kts | 29° |
| 2026-05-07 17:40 | 55.12723 | 49.07477 | 19396 ft | 295 kts | 44° |
| 2026-05-07 17:41 | 55.13853 | 49.10322 | 18871 ft | 297 kts | 68° |
| 2026-05-07 17:41 | 55.14203 | 49.13903 | 18389 ft | 297 kts | 94° |
| 2026-05-07 17:41 | 55.13640 | 49.17354 | 18016 ft | 296 kts | 119° |
| 2026-05-07 17:41 | 55.12397 | 49.20180 | 17570 ft | 297 kts | 141° |
| 2026-05-07 17:42 | 55.10573 | 49.21736 | 17151 ft | 296 kts | 168° |
| 2026-05-07 17:42 | 55.08575 | 49.22467 | 16694 ft | 297 kts | 160° |
| 2026-05-07 17:42 | 55.06871 | 49.24431 | 16230 ft | 295 kts | 127° |
| 2026-05-07 17:42 | 55.06020 | 49.27556 | 15915 ft | 286 kts | 97° |
| 2026-05-07 17:43 | 55.06013 | 49.30995 | 15476 ft | 283 kts | 75° |
| 2026-05-07 17:43 | 55.06731 | 49.34098 | 15067 ft | 278 kts | 53° |
| 2026-05-07 17:43 | 55.08024 | 49.36550 | 14660 ft | 275 kts | 35° |
| 2026-05-07 17:43 | 55.09679 | 49.38137 | 14242 ft | 272 kts | 15° |
| 2026-05-07 17:44 | 55.11527 | 49.38555 | 13845 ft | 270 kts | 354° |
| 2026-05-07 17:44 | 55.13346 | 49.37849 | 13452 ft | 268 kts | 338° |
| 2026-05-07 17:44 | 55.15029 | 49.36429 | 13049 ft | 268 kts | 332° |
| 2026-05-07 17:44 | 55.16637 | 49.34864 | 12648 ft | 268 kts | 331° |
| 2026-05-07 17:45 | 55.18263 | 49.33265 | 12250 ft | 268 kts | 331° |
| 2026-05-07 17:45 | 55.19884 | 49.31702 | 11846 ft | 268 kts | 332° |
| 2026-05-07 17:45 | 55.21516 | 49.30150 | 11444 ft | 269 kts | 332° |
| 2026-05-07 17:45 | 55.23167 | 49.28591 | 11031 ft | 269 kts | 332° |
| 2026-05-07 17:46 | 55.24795 | 49.27052 | 10627 ft | 269 kts | 332° |
| 2026-05-07 17:46 | 55.26442 | 49.25494 | 10299 ft | 264 kts | 333° |
| 2026-05-07 17:46 | 55.27999 | 49.24017 | 10163 ft | 251 kts | 332° |
| 2026-05-07 17:46 | 55.29534 | 49.22560 | 10005 ft | 251 kts | 333° |
| 2026-05-07 17:47 | 55.31056 | 49.21116 | 9698 ft | 250 kts | 333° |
| 2026-05-07 17:47 | 55.32580 | 49.19669 | 9346 ft | 249 kts | 333° |
| 2026-05-07 17:47 | 55.34107 | 49.18216 | 9029 ft | 247 kts | 333° |
| 2026-05-07 17:47 | 55.35612 | 49.16783 | 8712 ft | 246 kts | 333° |
| 2026-05-07 17:48 | 55.37103 | 49.15363 | 8385 ft | 245 kts | 333° |
| 2026-05-07 17:48 | 55.38602 | 49.13934 | 8057 ft | 244 kts | 333° |
| 2026-05-07 17:48 | 55.40089 | 49.12513 | 7735 ft | 242 kts | 333° |
| 2026-05-07 17:48 | 55.41545 | 49.11122 | 7443 ft | 242 kts | 333° |
| 2026-05-07 17:49 | 55.43038 | 49.09697 | 7100 ft | 242 kts | 333° |
| 2026-05-07 17:49 | 55.44495 | 49.08302 | 6789 ft | 241 kts | 333° |
| 2026-05-07 17:49 | 55.45957 | 49.06902 | 6479 ft | 240 kts | 333° |
| 2026-05-07 17:49 | 55.47434 | 49.05487 | 6153 ft | 240 kts | 333° |
| 2026-05-07 17:50 | 55.48899 | 49.04081 | 5852 ft | 239 kts | 333° |
| 2026-05-07 17:50 | 55.50344 | 49.02692 | 5549 ft | 238 kts | 333° |
| 2026-05-07 17:50 | 55.51787 | 49.01305 | 5227 ft | 238 kts | 333° |
| 2026-05-07 17:50 | 55.53228 | 48.99920 | 4917 ft | 238 kts | 333° |
| 2026-05-07 17:51 | 55.54679 | 48.98523 | 4599 ft | 239 kts | 333° |
| 2026-05-07 17:51 | 55.56132 | 48.97123 | 4386 ft | 235 kts | 333° |
| 2026-05-07 17:51 | 55.57549 | 48.95755 | 4309 ft | 231 kts | 333° |
| 2026-05-07 17:51 | 55.58923 | 48.94427 | 4203 ft | 220 kts | 333° |
| 2026-05-07 17:52 | 55.60241 | 48.93154 | 4145 ft | 215 kts | 333° |
| 2026-05-07 17:52 | 55.61581 | 48.91917 | 4079 ft | 216 kts | 339° |
| 2026-05-07 17:52 | 55.63024 | 48.91353 | 3981 ft | 214 kts | 7° |
| 2026-05-07 17:52 | 55.64400 | 48.92154 | 3805 ft | 209 kts | 34° |
| 2026-05-07 17:53 | 55.65572 | 48.93643 | 3577 ft | 206 kts | 37° |
| 2026-05-07 17:53 | 55.66739 | 48.95092 | 3327 ft | 203 kts | 35° |
| 2026-05-07 17:53 | 55.67883 | 48.96461 | 3104 ft | 195 kts | 35° |
| 2026-05-07 17:53 | 55.68967 | 48.97780 | 2912 ft | 186 kts | 39° |
| 2026-05-07 17:54 | 55.69819 | 48.99426 | 2779 ft | 177 kts | 64° |
| 2026-05-07 17:54 | 55.70082 | 49.01470 | 2663 ft | 168 kts | 91° |
| 2026-05-07 17:54 | 55.69828 | 49.03468 | 2678 ft | 170 kts | 111° |
| 2026-05-07 17:54 | 55.69288 | 49.05335 | 2681 ft | 171 kts | 118° |
| 2026-05-07 17:55 | 55.68644 | 49.07126 | 2678 ft | 171 kts | 121° |
| 2026-05-07 17:55 | 55.67983 | 49.08858 | 2617 ft | 167 kts | 122° |
| 2026-05-07 17:55 | 55.67338 | 49.10534 | 2376 ft | 162 kts | 121° |
| 2026-05-07 17:55 | 55.66739 | 49.12083 | 2192 ft | 146 kts | 121° |
| 2026-05-07 17:56 | 55.66189 | 49.13515 | 1962 ft | 139 kts | 120° |
| 2026-05-07 17:56 | 55.65649 | 49.14916 | 1803 ft | 138 kts | 120° |
| 2026-05-07 17:56 | 55.65108 | 49.16318 | 1605 ft | 138 kts | 121° |
| 2026-05-07 17:56 | 55.64564 | 49.17722 | 1422 ft | 138 kts | 121° |
| 2026-05-07 17:57 | 55.64021 | 49.19131 | 1237 ft | 138 kts | 121° |
| 2026-05-07 17:57 | 55.63659 | 49.20069 | 1103 ft | 138 kts | 121° |
| 2026-05-07 17:57 | 55.62942 | 49.21925 | 861 ft | 138 kts | 122° |
| 2026-05-07 17:57 | 55.62400 | 49.23316 | 686 ft | 136 kts | 123° |
| 2026-05-07 17:58 | 55.61856 | 49.24708 | 499 ft | 136 kts | 122° |
| 2026-05-07 17:58 | 55.61344 | 49.26040 | 418 ft | 122 kts | 124° |
| 2026-05-07 17:58 | 55.60935 | 49.27080 | 418 ft | 83 kts | 122° |
| 2026-05-07 17:58 | 55.60660 | 49.27788 | 418 ft | 63 kts | 123° |
| 2026-05-07 17:59 | 55.60444 | 49.28350 | 418 ft | 39 kts | 123° |
| 2026-05-07 17:59 | 55.60459 | 49.28661 | 418 ft | 27 kts | 35° |
| 2026-05-07 17:59 | 55.60490 | 49.28699 | 418 ft | 0 kts | 34° |
| 2026-05-07 18:00 | 55.60501 | 49.28713 | 418 ft | 6 kts | 34° |
| 2026-05-07 18:01 | 55.60571 | 49.28805 | 418 ft | 16 kts | 54° |
| 2026-05-07 18:01 | 55.60577 | 49.29034 | 418 ft | 22 kts | 92° |
| 2026-05-07 18:01 | 55.60682 | 49.29268 | 418 ft | 23 kts | 33° |
| 2026-05-07 18:01 | 55.60807 | 49.29443 | 418 ft | 19 kts | 76° |
| 2026-05-07 18:02 | 55.60838 | 49.29632 | 418 ft | 0 kts | 33° |